createdAt,value
2018-04-22T00:01:15.335Z,94.20
2018-04-22T00:03:42.884Z,94.30
2018-04-22T00:06:10.344Z,94.40
2018-04-22T00:08:37.836Z,94.50
2018-04-22T00:11:05.287Z,94.50
2018-04-22T00:13:32.822Z,94.70
2018-04-22T00:16:00.304Z,94.70
2018-04-22T00:18:27.764Z,94.90
2018-04-22T00:20:55.220Z,95.00
2018-04-22T00:23:23.556Z,95.20
2018-04-22T00:25:51.012Z,95.10
2018-04-22T00:28:18.466Z,95.10
2018-04-22T00:30:45.968Z,95.20
2018-04-22T00:33:13.425Z,95.50
2018-04-22T00:35:40.977Z,95.40
2018-04-22T00:38:08.460Z,95.60
2018-04-22T00:40:35.912Z,96.00
2018-04-22T00:43:03.426Z,96.00
2018-04-22T00:45:30.992Z,96.00
2018-04-22T00:47:58.447Z,96.00
2018-04-22T00:50:25.905Z,96.00
2018-04-22T00:52:53.379Z,96.30
2018-04-22T00:55:20.837Z,96.50
2018-04-22T00:57:48.344Z,96.70
2018-04-22T01:00:15.879Z,96.50
2018-04-22T01:02:43.324Z,96.70
2018-04-22T01:05:11.575Z,96.70
2018-04-22T01:07:39.119Z,96.70
2018-04-22T01:10:06.633Z,96.80
2018-04-22T01:12:34.092Z,96.90
2018-04-22T01:15:01.627Z,96.90
2018-04-22T01:17:29.133Z,97.00
2018-04-22T01:19:56.575Z,97.00
2018-04-22T01:22:24.056Z,97.10
2018-04-22T01:24:51.608Z,97.30
2018-04-22T01:27:19.839Z,97.40
2018-04-22T01:29:47.556Z,97.40
2018-04-22T01:32:15.776Z,97.50
2018-04-22T01:34:43.238Z,97.40
2018-04-22T01:37:10.717Z,97.60
2018-04-22T01:39:38.172Z,97.50
2018-04-22T01:42:05.628Z,97.70
2018-04-22T01:44:33.881Z,97.50
2018-04-22T01:47:01.336Z,97.50
2018-04-22T01:49:28.809Z,97.90
2018-04-22T01:51:56.388Z,97.90
2018-04-22T01:54:23.841Z,97.80
2018-04-22T01:56:51.313Z,97.80
2018-04-22T01:59:18.789Z,97.90
2018-04-22T02:01:46.261Z,98.10
2018-04-22T02:04:13.720Z,98.10
2018-04-22T02:06:41.203Z,98.00
2018-04-22T02:09:08.668Z,98.00
2018-04-22T02:11:36.137Z,98.10
2018-04-22T02:14:03.710Z,97.80
2018-04-22T02:16:31.174Z,98.20
2018-04-22T02:18:58.625Z,98.30
2018-04-22T02:21:26.107Z,98.50
2018-04-22T02:23:53.560Z,98.60
2018-04-22T02:26:21.017Z,98.80
2018-04-22T02:28:48.496Z,98.50
2018-04-22T02:31:15.945Z,98.30
2018-04-22T02:33:43.404Z,98.30
2018-04-22T02:36:11.658Z,98.50
2018-04-22T02:38:39.113Z,98.50
2018-04-22T02:41:06.654Z,98.70
2018-04-22T02:43:34.203Z,98.70
2018-04-22T02:46:01.577Z,98.80
2018-04-22T02:48:29.796Z,98.70
2018-04-22T02:50:57.288Z,98.70
2018-04-22T02:53:24.756Z,98.80
2018-04-22T02:55:52.217Z,98.80
2018-04-22T02:58:19.697Z,98.70
2018-04-22T03:00:47.155Z,98.80
2018-04-22T03:03:14.617Z,98.80
2018-04-22T03:05:42.088Z,98.80
2018-04-22T03:08:09.639Z,98.80
2018-04-22T03:10:37.857Z,99.00
2018-04-22T03:13:05.334Z,99.00
2018-04-22T03:15:32.793Z,98.90
2018-04-22T03:18:00.293Z,98.90
2018-04-22T03:20:27.764Z,99.00
2018-04-22T03:22:55.219Z,98.90
2018-04-22T03:25:22.672Z,99.10
2018-04-22T03:27:50.144Z,99.10
2018-04-22T03:30:17.596Z,99.20
2018-04-22T03:32:45.053Z,99.00
2018-04-22T03:35:12.544Z,99.40
2018-04-22T03:37:39.995Z,99.00
2018-04-22T03:40:07.444Z,99.00
2018-04-22T03:42:35.702Z,99.20
2018-04-22T03:45:03.141Z,99.20
2018-04-22T03:47:30.693Z,99.00
2018-04-22T03:49:58.924Z,99.20
2018-04-22T03:52:26.385Z,99.10
2018-04-22T03:54:53.858Z,99.20
2018-04-22T03:57:21.437Z,99.20
2018-04-22T03:59:48.971Z,99.00
2018-04-22T04:02:16.436Z,99.00
2018-04-22T04:04:43.911Z,99.10
2018-04-22T04:07:11.394Z,99.10
2018-04-22T04:09:38.855Z,99.10
2018-04-22T04:12:06.320Z,99.00
2018-04-22T04:14:33.776Z,99.00
2018-04-22T04:17:01.237Z,99.30
2018-04-22T04:19:41.527Z,98.90
2018-04-22T04:22:20.801Z,98.80
2018-04-22T04:25:00.221Z,98.80
2018-04-22T04:30:24.681Z,98.40
2018-04-22T04:32:52.134Z,98.60
2018-04-22T04:35:19.596Z,98.60
2018-04-22T04:37:47.088Z,98.70
2018-04-22T04:40:14.544Z,98.80
2018-04-22T04:42:42.001Z,98.70
2018-04-22T04:45:10.240Z,98.60
2018-04-22T04:47:37.701Z,98.60
2018-04-22T07:15:08.239Z,82.70
2018-04-22T08:32:37.106Z,69.20
2018-04-22T08:35:04.549Z,67.40
2018-04-22T08:40:14.985Z,66.70
2018-04-22T08:42:42.552Z,66.60
2018-04-22T08:45:10.062Z,64.40
2018-04-22T08:47:37.537Z,63.30
2018-04-22T08:50:05.071Z,61.70
2018-04-22T08:52:32.533Z,61.60
2018-04-22T08:55:00.763Z,60.90
2018-04-22T08:57:28.200Z,60.80
2018-04-22T08:59:55.711Z,61.30
2018-04-22T09:02:23.164Z,59.00
2018-04-22T09:39:42.938Z,47.70
2018-04-22T09:42:10.452Z,47.70
2018-04-22T09:44:37.909Z,48.60
2018-04-22T09:47:05.388Z,50.40
2018-04-22T09:49:32.836Z,47.90
2018-04-22T09:52:00.304Z,46.70
2018-04-22T09:54:27.796Z,46.30
2018-04-22T09:56:55.259Z,46.40
2018-04-22T12:25:52.489Z,32.60
2018-04-22T13:15:48.937Z,51.40
2018-04-22T13:18:16.384Z,51.70
2018-04-22T13:20:44.629Z,54.50
2018-04-22T13:23:12.163Z,54.50
2018-04-22T13:25:40.395Z,70.70
2018-04-22T13:28:07.852Z,70.60
2018-04-22T13:30:35.442Z,71.20
2018-04-22T17:29:38.192Z,99.90
2018-04-22T17:32:05.648Z,99.90
2018-04-22T17:34:33.116Z,99.90
2018-04-22T17:37:00.573Z,99.90
2018-04-22T17:39:28.056Z,99.90
2018-04-22T17:41:55.509Z,99.90
2018-04-22T17:44:23.313Z,99.90
2018-04-22T17:46:50.801Z,99.90
2018-04-22T17:49:18.263Z,99.90
2018-04-22T17:51:45.722Z,99.90
2018-04-22T17:54:13.220Z,99.90
2018-04-22T17:56:40.790Z,99.90
2018-04-22T17:59:08.244Z,99.90
2018-04-22T18:01:35.785Z,99.90
2018-04-22T18:04:03.157Z,99.90
2018-04-22T18:06:30.633Z,99.90
2018-04-22T18:08:58.228Z,99.90
2018-04-22T18:11:25.700Z,99.90
2018-04-22T18:13:53.181Z,99.90
2018-04-22T18:16:20.633Z,99.90
2018-04-22T18:18:48.097Z,99.90
2018-04-22T18:21:15.552Z,99.90
2018-04-22T18:23:43.021Z,99.90
2018-04-22T18:26:10.480Z,99.90
2018-04-22T18:28:37.950Z,99.90
2018-04-22T18:31:05.477Z,99.90
2018-04-22T18:33:33.764Z,99.90
2018-04-22T18:36:01.225Z,99.90
2018-04-22T18:38:28.726Z,99.90
2018-04-22T18:40:56.162Z,99.90
2018-04-22T18:43:23.647Z,99.90
2018-04-22T18:45:51.097Z,99.90
2018-04-22T18:48:18.561Z,99.90
2018-04-22T18:50:46.036Z,99.90
2018-04-22T18:53:13.489Z,99.90
2018-04-22T18:55:40.956Z,99.90
2018-04-22T18:58:08.439Z,99.90
2018-04-22T19:00:35.917Z,99.90
2018-04-22T19:03:03.465Z,99.90
2018-04-22T19:05:30.937Z,99.90
2018-04-22T19:07:58.407Z,99.90
2018-04-22T19:10:26.036Z,99.90
2018-04-22T19:12:55.020Z,99.90
2018-04-22T19:15:22.478Z,99.90
2018-04-22T19:17:49.944Z,99.90
2018-04-22T19:20:17.405Z,99.90
2018-04-22T19:22:44.877Z,99.90
2018-04-22T19:25:12.405Z,99.90
2018-04-22T19:27:39.965Z,99.90
2018-04-22T19:30:07.436Z,99.90
2018-04-22T19:32:34.888Z,99.90
2018-04-22T19:35:02.385Z,99.90
2018-04-22T19:37:29.848Z,99.90
2018-04-22T19:39:57.329Z,99.90
2018-04-22T19:42:24.793Z,99.90
2018-04-22T19:44:52.262Z,99.90
2018-04-22T19:47:19.776Z,99.90
2018-04-22T19:49:47.188Z,99.90
2018-04-22T19:52:14.655Z,99.90
2018-04-22T19:54:42.117Z,99.90
2018-04-22T19:57:09.587Z,99.90
2018-04-22T19:59:37.041Z,99.90
2018-04-22T20:02:05.347Z,99.90
2018-04-22T20:04:32.826Z,99.90
2018-04-22T20:07:00.320Z,99.90
2018-04-22T20:09:27.797Z,99.90
2018-04-22T20:11:55.257Z,99.90
2018-04-22T20:14:23.046Z,99.90
2018-04-22T20:16:50.513Z,99.90
2018-04-22T20:19:17.973Z,99.90
2018-04-22T20:21:45.440Z,99.90
2018-04-22T20:24:12.985Z,99.90
2018-04-22T20:26:41.212Z,99.90
2018-04-22T20:29:08.678Z,99.90
2018-04-22T20:31:36.148Z,99.90
2018-04-22T20:34:03.605Z,99.90
2018-04-22T20:36:31.077Z,99.90
2018-04-22T20:38:58.548Z,99.90
2018-04-22T20:41:26.000Z,99.90
2018-04-22T20:43:53.472Z,99.90
2018-04-22T20:46:20.930Z,99.90
2018-04-22T20:48:49.224Z,99.90
2018-04-22T20:51:16.685Z,99.90
2018-04-22T20:53:44.933Z,99.90
2018-04-22T20:56:12.389Z,99.90
2018-04-22T20:58:39.841Z,99.90
2018-04-22T21:01:07.340Z,99.90
2018-04-22T21:03:34.821Z,99.90
2018-04-22T21:06:02.294Z,99.90
2018-04-22T21:08:29.768Z,99.90
2018-04-22T21:10:57.224Z,99.90
2018-04-22T21:13:24.694Z,99.90
2018-04-22T21:15:52.161Z,99.90
2018-04-22T21:18:19.631Z,99.90
2018-04-22T21:20:47.080Z,99.90
2018-04-22T21:23:14.548Z,99.90
2018-04-22T21:25:42.044Z,99.90
2018-04-22T21:28:09.585Z,99.90
2018-04-22T21:30:37.049Z,99.90
2018-04-22T21:33:04.560Z,99.90
2018-04-22T21:35:32.026Z,99.90
2018-04-22T21:37:59.493Z,99.90
2018-04-22T21:40:26.956Z,99.90
2018-04-22T21:42:54.417Z,99.90
2018-04-22T21:45:21.909Z,99.90
2018-04-22T21:47:49.365Z,99.90
2018-04-22T21:50:16.832Z,99.90
2018-04-22T21:52:44.317Z,99.90
2018-04-22T21:55:11.784Z,99.90
2018-04-22T21:57:39.236Z,99.90
2018-04-22T22:00:06.720Z,99.90
2018-04-22T22:02:34.181Z,99.90
2018-04-22T22:05:01.637Z,99.90
2018-04-22T22:07:29.100Z,99.90
2018-04-22T22:09:56.620Z,99.90
2018-04-22T22:12:24.088Z,99.90
2018-04-22T22:14:51.545Z,99.90
2018-04-22T22:17:19.117Z,99.90
2018-04-22T22:19:46.588Z,99.90
2018-04-22T22:22:14.060Z,99.90
2018-04-22T22:24:41.528Z,99.90
2018-04-22T22:27:08.976Z,99.90
2018-04-22T22:29:36.452Z,99.90
2018-04-22T22:32:03.916Z,99.90
2018-04-22T22:34:31.404Z,99.90
2018-04-22T22:36:58.876Z,99.90
2018-04-22T22:39:26.656Z,99.90
2018-04-22T22:41:54.116Z,99.90
2018-04-22T22:44:21.565Z,99.90
2018-04-22T22:46:49.027Z,99.90
2018-04-22T22:49:16.528Z,99.90
2018-04-22T22:51:44.000Z,99.90
2018-04-22T22:54:11.444Z,99.90
2018-04-22T22:56:38.916Z,99.90
2018-04-22T22:59:06.368Z,99.90
2018-04-22T23:01:33.825Z,99.90
2018-04-22T23:04:02.077Z,99.90
2018-04-22T23:06:29.533Z,99.90
2018-04-22T23:08:57.004Z,99.90
2018-04-22T23:11:24.488Z,99.90
2018-04-22T23:13:52.320Z,99.90
2018-04-22T23:16:20.545Z,99.90
2018-04-22T23:18:48.003Z,99.90
2018-04-22T23:21:15.492Z,99.90
2018-04-22T23:23:42.952Z,99.90
2018-04-22T23:26:10.695Z,99.90
2018-04-22T23:28:38.149Z,99.90
2018-04-22T23:31:06.695Z,99.90
2018-04-22T23:33:34.157Z,99.90
2018-04-22T23:36:01.619Z,99.90
2018-04-22T23:38:29.105Z,99.90
2018-04-22T23:40:56.588Z,99.90
2018-04-22T23:43:24.144Z,99.90
2018-04-22T23:45:51.620Z,99.90
2018-04-22T23:48:19.088Z,99.90
2018-04-22T23:50:46.545Z,99.90
2018-04-22T23:53:14.003Z,99.90
2018-04-22T23:55:41.501Z,99.90
2018-04-22T23:58:08.950Z,99.90
